sensor_id;sensor_type;location;lat;lon;timestamp;P1;durP1;ratioP1;P2;durP2;ratioP2
32445;SDS011;18899;50.748;7.102;2022-11-04T00:01:32;1.75;;;0.60;;
32445;SDS011;18899;50.748;7.102;2022-11-04T00:04:01;1.58;;;0.90;;
32445;SDS011;18899;50.748;7.102;2022-11-04T00:06:27;1.15;;;0.50;;
32445;SDS011;18899;50.748;7.102;2022-11-04T00:08:53;0.73;;;0.60;;
32445;SDS011;18899;50.748;7.102;2022-11-04T00:11:21;2.03;;;0.75;;
32445;SDS011;18899;50.748;7.102;2022-11-04T00:14:06;0.77;;;0.60;;
32445;SDS011;18899;50.748;7.102;2022-11-04T00:16:33;0.98;;;0.60;;
32445;SDS011;18899;50.748;7.102;2022-11-04T00:19:17;1.27;;;0.70;;
32445;SDS011;18899;50.748;7.102;2022-11-04T00:21:43;1.38;;;0.70;;
32445;SDS011;18899;50.748;7.102;2022-11-04T00:24:27;2.55;;;0.88;;
32445;SDS011;18899;50.748;7.102;2022-11-04T00:27:12;2.08;;;0.80;;
32445;SDS011;18899;50.748;7.102;2022-11-04T00:29:58;2.03;;;0.80;;
32445;SDS011;18899;50.748;7.102;2022-11-04T00:32:24;0.90;;;0.70;;
32445;SDS011;18899;50.748;7.102;2022-11-04T00:35:08;3.08;;;0.85;;
32445;SDS011;18899;50.748;7.102;2022-11-04T00:37:38;1.17;;;0.77;;
32445;SDS011;18899;50.748;7.102;2022-11-04T00:40:05;3.08;;;0.90;;
32445;SDS011;18899;50.748;7.102;2022-11-04T00:42:32;1.50;;;0.90;;
32445;SDS011;18899;50.748;7.102;2022-11-04T00:44:58;1.95;;;1.05;;
32445;SDS011;18899;50.748;7.102;2022-11-04T00:47:24;1.88;;;0.90;;
32445;SDS011;18899;50.748;7.102;2022-11-04T00:49:49;0.85;;;0.63;;
32445;SDS011;18899;50.748;7.102;2022-11-04T00:52:15;1.27;;;0.77;;
32445;SDS011;18899;50.748;7.102;2022-11-04T00:54:41;2.45;;;0.77;;
32445;SDS011;18899;50.748;7.102;2022-11-04T00:57:10;1.95;;;0.80;;
32445;SDS011;18899;50.748;7.102;2022-11-04T00:59:36;2.35;;;0.90;;
32445;SDS011;18899;50.748;7.102;2022-11-04T01:02:03;1.48;;;0.80;;
32445;SDS011;18899;50.748;7.102;2022-11-04T01:04:29;1.00;;;0.80;;
32445;SDS011;18899;50.748;7.102;2022-11-04T01:06:55;1.45;;;0.85;;
32445;SDS011;18899;50.748;7.102;2022-11-04T01:09:21;1.27;;;0.90;;
32445;SDS011;18899;50.748;7.102;2022-11-04T01:11:46;0.98;;;0.70;;
32445;SDS011;18899;50.748;7.102;2022-11-04T01:14:12;2.17;;;0.90;;
32445;SDS011;18899;50.748;7.102;2022-11-04T01:16:38;1.85;;;0.80;;
32445;SDS011;18899;50.748;7.102;2022-11-04T01:19:04;0.95;;;0.73;;
32445;SDS011;18899;50.748;7.102;2022-11-04T01:21:30;0.70;;;0.55;;
32445;SDS011;18899;50.748;7.102;2022-11-04T01:23:55;3.95;;;0.65;;
32445;SDS011;18899;50.748;7.102;2022-11-04T01:26:22;1.98;;;0.70;;
32445;SDS011;18899;50.748;7.102;2022-11-04T01:28:50;1.88;;;0.70;;
32445;SDS011;18899;50.748;7.102;2022-11-04T01:31:17;1.95;;;0.88;;
32445;SDS011;18899;50.748;7.102;2022-11-04T01:33:47;1.43;;;0.70;;
32445;SDS011;18899;50.748;7.102;2022-11-04T01:36:13;1.02;;;0.60;;
32445;SDS011;18899;50.748;7.102;2022-11-04T01:38:39;1.80;;;0.80;;
32445;SDS011;18899;50.748;7.102;2022-11-04T01:41:05;0.82;;;0.50;;
32445;SDS011;18899;50.748;7.102;2022-11-04T01:43:41;0.93;;;0.60;;
32445;SDS011;18899;50.748;7.102;2022-11-04T01:46:09;0.70;;;0.50;;
32445;SDS011;18899;50.748;7.102;2022-11-04T01:48:45;1.10;;;0.60;;
32445;SDS011;18899;50.748;7.102;2022-11-04T01:51:11;1.75;;;0.70;;
32445;SDS011;18899;50.748;7.102;2022-11-04T01:53:38;0.70;;;0.50;;
32445;SDS011;18899;50.748;7.102;2022-11-04T01:56:06;2.45;;;0.70;;
32445;SDS011;18899;50.748;7.102;2022-11-04T01:58:36;2.97;;;0.60;;
32445;SDS011;18899;50.748;7.102;2022-11-04T02:01:04;5.25;;;1.00;;
32445;SDS011;18899;50.748;7.102;2022-11-04T02:03:32;3.60;;;1.00;;
32445;SDS011;18899;50.748;7.102;2022-11-04T02:06:00;2.40;;;0.82;;
32445;SDS011;18899;50.748;7.102;2022-11-04T02:08:28;2.00;;;0.80;;
32445;SDS011;18899;50.748;7.102;2022-11-04T02:10:56;2.15;;;0.60;;
32445;SDS011;18899;50.748;7.102;2022-11-04T02:13:23;1.17;;;0.75;;
32445;SDS011;18899;50.748;7.102;2022-11-04T02:15:56;5.65;;;1.08;;
32445;SDS011;18899;50.748;7.102;2022-11-04T02:37:42;3.72;;;0.60;;
32445;SDS011;18899;50.748;7.102;2022-11-04T02:45:40;3.35;;;0.73;;
32445;SDS011;18899;50.748;7.102;2022-11-04T02:48:18;5.95;;;0.82;;
32445;SDS011;18899;50.748;7.102;2022-11-04T02:51:05;2.75;;;0.57;;
32445;SDS011;18899;50.748;7.102;2022-11-04T02:56:35;4.93;;;0.77;;
32445;SDS011;18899;50.748;7.102;2022-11-04T02:59:10;4.03;;;0.77;;
32445;SDS011;18899;50.748;7.102;2022-11-04T03:01:44;1.25;;;0.80;;
32445;SDS011;18899;50.748;7.102;2022-11-04T03:04:16;3.03;;;0.80;;
32445;SDS011;18899;50.748;7.102;2022-11-04T03:06:46;3.22;;;0.93;;
32445;SDS011;18899;50.748;7.102;2022-11-04T03:09:14;2.35;;;0.70;;
32445;SDS011;18899;50.748;7.102;2022-11-04T03:11:41;4.18;;;0.90;;
32445;SDS011;18899;50.748;7.102;2022-11-04T03:14:12;2.85;;;0.70;;
32445;SDS011;18899;50.748;7.102;2022-11-04T03:16:43;1.92;;;0.80;;
32445;SDS011;18899;50.748;7.102;2022-11-04T03:19:13;2.70;;;1.25;;
32445;SDS011;18899;50.748;7.102;2022-11-04T03:21:42;4.45;;;0.95;;
32445;SDS011;18899;50.748;7.102;2022-11-04T03:24:17;3.20;;;1.10;;
32445;SDS011;18899;50.748;7.102;2022-11-04T03:26:48;3.72;;;1.05;;
32445;SDS011;18899;50.748;7.102;2022-11-04T03:29:27;3.42;;;0.63;;
32445;SDS011;18899;50.748;7.102;2022-11-04T03:34:44;2.53;;;0.82;;
32445;SDS011;18899;50.748;7.102;2022-11-04T03:37:10;4.95;;;1.08;;
32445;SDS011;18899;50.748;7.102;2022-11-04T03:39:36;5.43;;;0.90;;
32445;SDS011;18899;50.748;7.102;2022-11-04T03:42:03;6.82;;;0.90;;
32445;SDS011;18899;50.748;7.102;2022-11-04T03:44:44;3.17;;;0.80;;
32445;SDS011;18899;50.748;7.102;2022-11-04T03:47:14;5.78;;;0.85;;
32445;SDS011;18899;50.748;7.102;2022-11-04T03:49:43;3.45;;;0.70;;
32445;SDS011;18899;50.748;7.102;2022-11-04T03:52:09;4.88;;;0.90;;
32445;SDS011;18899;50.748;7.102;2022-11-04T03:54:35;3.85;;;0.73;;
32445;SDS011;18899;50.748;7.102;2022-11-04T04:02:55;7.25;;;0.82;;
32445;SDS011;18899;50.748;7.102;2022-11-04T04:05:32;2.13;;;0.60;;
32445;SDS011;18899;50.748;7.102;2022-11-04T04:08:24;4.20;;;1.10;;
32445;SDS011;18899;50.748;7.102;2022-11-04T04:11:26;6.10;;;0.90;;
32445;SDS011;18899;50.748;7.102;2022-11-04T04:14:34;3.08;;;0.90;;
32445;SDS011;18899;50.748;7.102;2022-11-04T04:17:26;3.33;;;0.88;;
32445;SDS011;18899;50.748;7.102;2022-11-04T04:19:58;3.40;;;0.70;;
32445;SDS011;18899;50.748;7.102;2022-11-04T04:22:28;2.70;;;0.90;;
32445;SDS011;18899;50.748;7.102;2022-11-04T04:24:57;2.60;;;0.80;;
32445;SDS011;18899;50.748;7.102;2022-11-04T04:27:44;3.83;;;0.82;;
32445;SDS011;18899;50.748;7.102;2022-11-04T04:30:13;8.50;;;0.93;;
32445;SDS011;18899;50.748;7.102;2022-11-04T04:35:08;6.05;;;1.10;;
32445;SDS011;18899;50.748;7.102;2022-11-04T04:37:54;4.38;;;1.00;;
32445;SDS011;18899;50.748;7.102;2022-11-04T04:40:43;3.83;;;1.15;;
32445;SDS011;18899;50.748;7.102;2022-11-04T04:43:33;5.90;;;0.90;;
32445;SDS011;18899;50.748;7.102;2022-11-04T04:48:51;3.85;;;1.00;;
32445;SDS011;18899;50.748;7.102;2022-11-04T04:51:16;2.58;;;0.88;;
32445;SDS011;18899;50.748;7.102;2022-11-04T04:53:42;4.47;;;1.13;;
32445;SDS011;18899;50.748;7.102;2022-11-04T04:56:07;1.17;;;0.70;;
32445;SDS011;18899;50.748;7.102;2022-11-04T04:58:33;3.60;;;1.25;;
32445;SDS011;18899;50.748;7.102;2022-11-04T05:00:58;3.55;;;0.98;;
32445;SDS011;18899;50.748;7.102;2022-11-04T05:03:24;2.70;;;0.82;;
32445;SDS011;18899;50.748;7.102;2022-11-04T05:05:49;13.93;;;1.30;;
32445;SDS011;18899;50.748;7.102;2022-11-04T05:08:15;4.97;;;1.10;;
32445;SDS011;18899;50.748;7.102;2022-11-04T05:10:40;1.92;;;0.88;;
32445;SDS011;18899;50.748;7.102;2022-11-04T05:13:06;6.38;;;0.90;;
32445;SDS011;18899;50.748;7.102;2022-11-04T05:15:50;3.38;;;1.02;;
32445;SDS011;18899;50.748;7.102;2022-11-04T05:18:16;2.33;;;0.82;;
32445;SDS011;18899;50.748;7.102;2022-11-04T05:20:42;4.35;;;0.88;;
32445;SDS011;18899;50.748;7.102;2022-11-04T05:23:07;3.53;;;0.82;;
32445;SDS011;18899;50.748;7.102;2022-11-04T05:25:36;2.30;;;1.08;;
32445;SDS011;18899;50.748;7.102;2022-11-04T05:28:05;7.88;;;0.80;;
32445;SDS011;18899;50.748;7.102;2022-11-04T05:30:30;2.00;;;1.00;;
32445;SDS011;18899;50.748;7.102;2022-11-04T05:32:56;3.45;;;1.02;;
32445;SDS011;18899;50.748;7.102;2022-11-04T05:35:22;2.85;;;0.95;;
32445;SDS011;18899;50.748;7.102;2022-11-04T05:37:47;3.03;;;1.33;;
32445;SDS011;18899;50.748;7.102;2022-11-04T05:40:13;6.15;;;1.20;;
32445;SDS011;18899;50.748;7.102;2022-11-04T05:42:39;5.53;;;0.82;;
32445;SDS011;18899;50.748;7.102;2022-11-04T05:45:05;4.68;;;1.00;;
32445;SDS011;18899;50.748;7.102;2022-11-04T05:47:30;5.20;;;1.20;;
32445;SDS011;18899;50.748;7.102;2022-11-04T05:49:56;3.80;;;1.08;;
32445;SDS011;18899;50.748;7.102;2022-11-04T05:52:21;5.32;;;1.05;;
32445;SDS011;18899;50.748;7.102;2022-11-04T05:54:47;5.43;;;1.98;;
32445;SDS011;18899;50.748;7.102;2022-11-04T05:57:12;1.52;;;1.00;;
32445;SDS011;18899;50.748;7.102;2022-11-04T05:59:38;8.90;;;1.20;;
32445;SDS011;18899;50.748;7.102;2022-11-04T06:02:04;2.88;;;0.90;;
32445;SDS011;18899;50.748;7.102;2022-11-04T06:04:30;4.90;;;1.00;;
32445;SDS011;18899;50.748;7.102;2022-11-04T06:06:56;2.55;;;1.00;;
32445;SDS011;18899;50.748;7.102;2022-11-04T06:09:21;5.22;;;1.20;;
32445;SDS011;18899;50.748;7.102;2022-11-04T06:12:03;5.07;;;1.23;;
32445;SDS011;18899;50.748;7.102;2022-11-04T06:14:33;4.78;;;1.02;;
32445;SDS011;18899;50.748;7.102;2022-11-04T06:16:59;7.30;;;1.50;;
32445;SDS011;18899;50.748;7.102;2022-11-04T06:19:24;7.30;;;1.48;;
32445;SDS011;18899;50.748;7.102;2022-11-04T06:21:50;6.50;;;1.27;;
32445;SDS011;18899;50.748;7.102;2022-11-04T06:24:16;2.97;;;1.13;;
32445;SDS011;18899;50.748;7.102;2022-11-04T06:26:41;2.67;;;1.27;;
32445;SDS011;18899;50.748;7.102;2022-11-04T06:29:07;5.68;;;1.73;;
32445;SDS011;18899;50.748;7.102;2022-11-04T06:31:33;3.63;;;1.23;;
32445;SDS011;18899;50.748;7.102;2022-11-04T06:33:59;5.03;;;1.50;;
32445;SDS011;18899;50.748;7.102;2022-11-04T06:36:25;4.38;;;1.27;;
32445;SDS011;18899;50.748;7.102;2022-11-04T06:38:50;5.68;;;1.75;;
32445;SDS011;18899;50.748;7.102;2022-11-04T06:41:16;3.30;;;1.45;;
32445;SDS011;18899;50.748;7.102;2022-11-04T06:43:42;9.60;;;1.38;;
32445;SDS011;18899;50.748;7.102;2022-11-04T06:46:24;8.05;;;1.45;;
32445;SDS011;18899;50.748;7.102;2022-11-04T06:48:52;4.45;;;1.10;;
32445;SDS011;18899;50.748;7.102;2022-11-04T06:51:19;5.25;;;1.30;;
32445;SDS011;18899;50.748;7.102;2022-11-04T06:53:44;4.95;;;1.65;;
32445;SDS011;18899;50.748;7.102;2022-11-04T06:56:10;5.43;;;1.48;;
32445;SDS011;18899;50.748;7.102;2022-11-04T06:58:36;6.45;;;1.38;;
32445;SDS011;18899;50.748;7.102;2022-11-04T07:01:02;6.07;;;1.30;;
32445;SDS011;18899;50.748;7.102;2022-11-04T07:03:28;7.45;;;1.10;;
32445;SDS011;18899;50.748;7.102;2022-11-04T07:05:54;4.18;;;1.38;;
32445;SDS011;18899;50.748;7.102;2022-11-04T07:08:19;7.57;;;1.50;;
32445;SDS011;18899;50.748;7.102;2022-11-04T07:10:45;3.40;;;1.25;;
32445;SDS011;18899;50.748;7.102;2022-11-04T07:13:11;3.72;;;1.00;;
32445;SDS011;18899;50.748;7.102;2022-11-04T07:15:37;5.95;;;1.13;;
32445;SDS011;18899;50.748;7.102;2022-11-04T07:18:03;4.82;;;1.30;;
32445;SDS011;18899;50.748;7.102;2022-11-04T07:20:30;5.20;;;1.38;;
32445;SDS011;18899;50.748;7.102;2022-11-04T07:22:57;5.45;;;1.58;;
32445;SDS011;18899;50.748;7.102;2022-11-04T07:25:22;5.05;;;1.55;;
32445;SDS011;18899;50.748;7.102;2022-11-04T07:27:48;4.55;;;1.52;;
32445;SDS011;18899;50.748;7.102;2022-11-04T07:30:14;7.80;;;1.80;;
32445;SDS011;18899;50.748;7.102;2022-11-04T07:32:39;4.93;;;1.60;;
32445;SDS011;18899;50.748;7.102;2022-11-04T07:35:05;5.28;;;1.65;;
32445;SDS011;18899;50.748;7.102;2022-11-04T07:37:31;6.50;;;1.42;;
32445;SDS011;18899;50.748;7.102;2022-11-04T07:39:57;3.92;;;1.13;;
32445;SDS011;18899;50.748;7.102;2022-11-04T07:42:22;8.48;;;1.80;;
32445;SDS011;18899;50.748;7.102;2022-11-04T07:44:48;4.70;;;1.48;;
32445;SDS011;18899;50.748;7.102;2022-11-04T07:47:13;11.15;;;1.60;;
32445;SDS011;18899;50.748;7.102;2022-11-04T07:49:39;7.32;;;1.80;;
32445;SDS011;18899;50.748;7.102;2022-11-04T07:52:04;3.33;;;1.35;;
32445;SDS011;18899;50.748;7.102;2022-11-04T07:54:30;10.63;;;1.48;;
32445;SDS011;18899;50.748;7.102;2022-11-04T07:56:56;7.57;;;1.55;;
32445;SDS011;18899;50.748;7.102;2022-11-04T07:59:22;4.88;;;1.73;;
32445;SDS011;18899;50.748;7.102;2022-11-04T08:01:47;7.95;;;1.30;;
32445;SDS011;18899;50.748;7.102;2022-11-04T08:04:13;6.85;;;1.77;;
32445;SDS011;18899;50.748;7.102;2022-11-04T08:06:38;7.80;;;1.63;;
32445;SDS011;18899;50.748;7.102;2022-11-04T08:09:04;7.05;;;1.63;;
32445;SDS011;18899;50.748;7.102;2022-11-04T08:11:29;4.82;;;1.50;;
32445;SDS011;18899;50.748;7.102;2022-11-04T08:13:55;4.60;;;1.65;;
32445;SDS011;18899;50.748;7.102;2022-11-04T08:16:21;10.10;;;2.20;;
32445;SDS011;18899;50.748;7.102;2022-11-04T08:18:48;6.13;;;1.40;;
32445;SDS011;18899;50.748;7.102;2022-11-04T08:21:16;4.13;;;1.30;;
32445;SDS011;18899;50.748;7.102;2022-11-04T08:23:42;5.75;;;1.48;;
32445;SDS011;18899;50.748;7.102;2022-11-04T08:26:10;5.80;;;1.77;;
32445;SDS011;18899;50.748;7.102;2022-11-04T08:28:38;5.90;;;1.60;;
32445;SDS011;18899;50.748;7.102;2022-11-04T08:31:06;6.40;;;1.40;;
32445;SDS011;18899;50.748;7.102;2022-11-04T08:33:34;5.77;;;1.27;;
32445;SDS011;18899;50.748;7.102;2022-11-04T08:36:04;8.57;;;1.25;;
32445;SDS011;18899;50.748;7.102;2022-11-04T08:38:33;3.38;;;1.13;;
32445;SDS011;18899;50.748;7.102;2022-11-04T08:40:59;5.47;;;1.33;;
32445;SDS011;18899;50.748;7.102;2022-11-04T08:43:27;9.13;;;1.98;;
32445;SDS011;18899;50.748;7.102;2022-11-04T08:45:54;4.78;;;1.23;;
32445;SDS011;18899;50.748;7.102;2022-11-04T08:48:20;6.03;;;1.13;;
32445;SDS011;18899;50.748;7.102;2022-11-04T08:50:53;6.88;;;1.80;;
32445;SDS011;18899;50.748;7.102;2022-11-04T08:53:20;6.03;;;1.38;;
32445;SDS011;18899;50.748;7.102;2022-11-04T08:55:46;5.38;;;1.38;;
32445;SDS011;18899;50.748;7.102;2022-11-04T08:58:12;2.60;;;1.33;;
32445;SDS011;18899;50.748;7.102;2022-11-04T09:00:38;5.25;;;1.30;;
32445;SDS011;18899;50.748;7.102;2022-11-04T09:03:03;4.72;;;1.17;;
32445;SDS011;18899;50.748;7.102;2022-11-04T09:05:29;6.00;;;1.10;;
32445;SDS011;18899;50.748;7.102;2022-11-04T09:07:55;7.90;;;2.13;;
32445;SDS011;18899;50.748;7.102;2022-11-04T09:10:20;6.00;;;1.33;;
32445;SDS011;18899;50.748;7.102;2022-11-04T09:12:46;3.50;;;1.27;;
32445;SDS011;18899;50.748;7.102;2022-11-04T09:15:12;5.57;;;1.10;;
32445;SDS011;18899;50.748;7.102;2022-11-04T09:17:38;4.90;;;1.20;;
32445;SDS011;18899;50.748;7.102;2022-11-04T09:20:04;4.03;;;0.90;;
32445;SDS011;18899;50.748;7.102;2022-11-04T09:22:31;4.75;;;1.20;;
32445;SDS011;18899;50.748;7.102;2022-11-04T09:24:56;5.18;;;1.20;;
32445;SDS011;18899;50.748;7.102;2022-11-04T09:27:22;5.07;;;1.17;;
32445;SDS011;18899;50.748;7.102;2022-11-04T09:29:48;6.45;;;1.20;;
32445;SDS011;18899;50.748;7.102;2022-11-04T09:32:13;4.88;;;1.33;;
32445;SDS011;18899;50.748;7.102;2022-11-04T09:34:39;6.40;;;1.52;;
32445;SDS011;18899;50.748;7.102;2022-11-04T09:37:05;5.47;;;1.30;;
32445;SDS011;18899;50.748;7.102;2022-11-04T09:39:30;5.13;;;0.77;;
32445;SDS011;18899;50.748;7.102;2022-11-04T09:45:02;3.00;;;1.10;;
32445;SDS011;18899;50.748;7.102;2022-11-04T09:47:33;6.22;;;1.30;;
32445;SDS011;18899;50.748;7.102;2022-11-04T09:50:01;4.68;;;0.88;;
32445;SDS011;18899;50.748;7.102;2022-11-04T09:52:31;5.45;;;1.02;;
32445;SDS011;18899;50.748;7.102;2022-11-04T09:57:53;9.65;;;1.25;;
32445;SDS011;18899;50.748;7.102;2022-11-04T10:00:22;4.22;;;1.05;;
32445;SDS011;18899;50.748;7.102;2022-11-04T10:05:31;1.95;;;0.80;;
32445;SDS011;18899;50.748;7.102;2022-11-04T10:11:16;5.78;;;1.00;;
32445;SDS011;18899;50.748;7.102;2022-11-04T10:13:59;3.40;;;1.30;;
32445;SDS011;18899;50.748;7.102;2022-11-04T10:19:41;4.70;;;1.25;;
32445;SDS011;18899;50.748;7.102;2022-11-04T10:27:29;4.90;;;1.13;;
32445;SDS011;18899;50.748;7.102;2022-11-04T10:30:00;4.40;;;0.98;;
32445;SDS011;18899;50.748;7.102;2022-11-04T10:32:35;8.30;;;1.27;;
32445;SDS011;18899;50.748;7.102;2022-11-04T10:37:37;6.40;;;1.10;;
32445;SDS011;18899;50.748;7.102;2022-11-04T10:40:38;4.97;;;1.20;;
32445;SDS011;18899;50.748;7.102;2022-11-04T10:43:00;4.28;;;1.20;;
32445;SDS011;18899;50.748;7.102;2022-11-04T10:45:33;2.08;;;0.68;;
32445;SDS011;18899;50.748;7.102;2022-11-04T10:48:21;4.22;;;1.13;;
32445;SDS011;18899;50.748;7.102;2022-11-04T10:50:54;5.85;;;1.15;;
32445;SDS011;18899;50.748;7.102;2022-11-04T10:53:25;3.90;;;0.90;;
32445;SDS011;18899;50.748;7.102;2022-11-04T10:58:28;4.65;;;0.93;;
32445;SDS011;18899;50.748;7.102;2022-11-04T11:00:56;3.33;;;0.80;;
32445;SDS011;18899;50.748;7.102;2022-11-04T11:03:40;4.05;;;1.48;;
32445;SDS011;18899;50.748;7.102;2022-11-04T11:06:09;2.63;;;0.85;;
32445;SDS011;18899;50.748;7.102;2022-11-04T11:09:00;5.93;;;0.90;;
32445;SDS011;18899;50.748;7.102;2022-11-04T11:11:49;4.78;;;0.90;;
32445;SDS011;18899;50.748;7.102;2022-11-04T11:14:16;5.07;;;1.40;;
32445;SDS011;18899;50.748;7.102;2022-11-04T11:16:51;3.03;;;0.82;;
32445;SDS011;18899;50.748;7.102;2022-11-04T11:19:18;5.47;;;1.00;;
32445;SDS011;18899;50.748;7.102;2022-11-04T11:21:55;5.45;;;1.35;;
32445;SDS011;18899;50.748;7.102;2022-11-04T11:24:25;1.40;;;0.60;;
32445;SDS011;18899;50.748;7.102;2022-11-04T11:27:08;4.00;;;1.27;;
32445;SDS011;18899;50.748;7.102;2022-11-04T11:29:39;2.40;;;0.70;;
32445;SDS011;18899;50.748;7.102;2022-11-04T11:35:14;2.72;;;0.80;;
32445;SDS011;18899;50.748;7.102;2022-11-04T11:37:43;4.03;;;0.85;;
32445;SDS011;18899;50.748;7.102;2022-11-04T11:40:24;4.32;;;1.40;;
32445;SDS011;18899;50.748;7.102;2022-11-04T11:42:52;3.97;;;0.80;;
32445;SDS011;18899;50.748;7.102;2022-11-04T11:45:19;5.30;;;0.70;;
32445;SDS011;18899;50.748;7.102;2022-11-04T11:47:47;5.47;;;0.80;;
32445;SDS011;18899;50.748;7.102;2022-11-04T11:50:19;3.35;;;0.88;;
32445;SDS011;18899;50.748;7.102;2022-11-04T11:52:50;4.57;;;1.02;;
32445;SDS011;18899;50.748;7.102;2022-11-04T11:55:31;5.13;;;1.25;;
32445;SDS011;18899;50.748;7.102;2022-11-04T11:58:06;6.28;;;0.90;;
32445;SDS011;18899;50.748;7.102;2022-11-04T12:00:57;3.10;;;0.90;;
32445;SDS011;18899;50.748;7.102;2022-11-04T12:17:23;3.80;;;0.88;;
32445;SDS011;18899;50.748;7.102;2022-11-04T12:25:27;7.25;;;1.35;;
32445;SDS011;18899;50.748;7.102;2022-11-04T12:30:47;1.42;;;0.75;;
32445;SDS011;18899;50.748;7.102;2022-11-04T12:33:30;6.65;;;1.00;;
32445;SDS011;18899;50.748;7.102;2022-11-04T12:41:59;1.45;;;0.60;;
32445;SDS011;18899;50.748;7.102;2022-11-04T12:44:33;2.95;;;1.00;;
32445;SDS011;18899;50.748;7.102;2022-11-04T12:49:50;2.20;;;0.70;;
32445;SDS011;18899;50.748;7.102;2022-11-04T12:55:48;5.50;;;0.93;;
32445;SDS011;18899;50.748;7.102;2022-11-04T13:00:50;5.03;;;0.85;;
32445;SDS011;18899;50.748;7.102;2022-11-04T13:06:32;2.53;;;0.80;;
32445;SDS011;18899;50.748;7.102;2022-11-04T13:09:04;4.05;;;0.90;;
32445;SDS011;18899;50.748;7.102;2022-11-04T13:11:55;5.47;;;1.00;;
32445;SDS011;18899;50.748;7.102;2022-11-04T13:14:28;3.90;;;0.85;;
32445;SDS011;18899;50.748;7.102;2022-11-04T13:17:09;5.20;;;0.77;;
32445;SDS011;18899;50.748;7.102;2022-11-04T13:22:10;4.10;;;1.05;;
32445;SDS011;18899;50.748;7.102;2022-11-04T13:24:45;5.13;;;1.17;;
32445;SDS011;18899;50.748;7.102;2022-11-04T13:27:19;1.60;;;0.80;;
32445;SDS011;18899;50.748;7.102;2022-11-04T13:29:49;5.72;;;1.15;;
32445;SDS011;18899;50.748;7.102;2022-11-04T13:32:27;2.50;;;0.88;;
32445;SDS011;18899;50.748;7.102;2022-11-04T13:35:17;3.78;;;1.02;;
32445;SDS011;18899;50.748;7.102;2022-11-04T13:38:10;3.80;;;1.00;;
32445;SDS011;18899;50.748;7.102;2022-11-04T13:41:03;3.20;;;0.93;;
32445;SDS011;18899;50.748;7.102;2022-11-04T13:43:35;1.55;;;0.70;;
32445;SDS011;18899;50.748;7.102;2022-11-04T13:46:03;5.65;;;0.80;;
32445;SDS011;18899;50.748;7.102;2022-11-04T13:48:52;3.00;;;0.80;;
32445;SDS011;18899;50.748;7.102;2022-11-04T13:51:45;4.53;;;1.00;;
32445;SDS011;18899;50.748;7.102;2022-11-04T13:54:26;4.82;;;1.08;;
32445;SDS011;18899;50.748;7.102;2022-11-04T13:59:41;1.90;;;1.13;;
32445;SDS011;18899;50.748;7.102;2022-11-04T14:04:41;4.68;;;1.05;;
32445;SDS011;18899;50.748;7.102;2022-11-04T14:07:08;4.00;;;1.25;;
32445;SDS011;18899;50.748;7.102;2022-11-04T14:25:21;3.58;;;1.20;;
32445;SDS011;18899;50.748;7.102;2022-11-04T14:27:56;1.75;;;1.02;;
32445;SDS011;18899;50.748;7.102;2022-11-04T14:33:27;2.72;;;1.00;;
32445;SDS011;18899;50.748;7.102;2022-11-04T14:38:50;2.78;;;0.80;;
32445;SDS011;18899;50.748;7.102;2022-11-04T14:43:53;5.10;;;0.90;;
32445;SDS011;18899;50.748;7.102;2022-11-04T14:46:21;3.13;;;0.75;;
32445;SDS011;18899;50.748;7.102;2022-11-04T14:48:52;4.03;;;1.00;;
32445;SDS011;18899;50.748;7.102;2022-11-04T14:51:27;2.20;;;0.80;;
32445;SDS011;18899;50.748;7.102;2022-11-04T14:53:58;1.67;;;0.50;;
32445;SDS011;18899;50.748;7.102;2022-11-04T14:56:29;2.90;;;0.95;;
32445;SDS011;18899;50.748;7.102;2022-11-04T15:01:36;4.00;;;1.17;;
32445;SDS011;18899;50.748;7.102;2022-11-04T15:04:07;2.58;;;1.08;;
32445;SDS011;18899;50.748;7.102;2022-11-04T15:06:55;2.60;;;0.90;;
32445;SDS011;18899;50.748;7.102;2022-11-04T15:09:28;6.13;;;1.13;;
32445;SDS011;18899;50.748;7.102;2022-11-04T15:12:08;2.97;;;1.27;;
32445;SDS011;18899;50.748;7.102;2022-11-04T15:14:56;3.75;;;0.93;;
32445;SDS011;18899;50.748;7.102;2022-11-04T15:17:24;3.20;;;0.95;;
32445;SDS011;18899;50.748;7.102;2022-11-04T15:19:53;2.60;;;0.98;;
32445;SDS011;18899;50.748;7.102;2022-11-04T15:22:22;2.13;;;1.13;;
32445;SDS011;18899;50.748;7.102;2022-11-04T15:24:48;2.90;;;1.00;;
32445;SDS011;18899;50.748;7.102;2022-11-04T15:27:17;3.70;;;0.70;;
32445;SDS011;18899;50.748;7.102;2022-11-04T15:29:59;2.05;;;1.00;;
32445;SDS011;18899;50.748;7.102;2022-11-04T15:32:28;5.20;;;1.23;;
32445;SDS011;18899;50.748;7.102;2022-11-04T15:34:54;3.00;;;1.52;;
32445;SDS011;18899;50.748;7.102;2022-11-04T15:37:24;2.97;;;1.58;;
32445;SDS011;18899;50.748;7.102;2022-11-04T15:39:54;6.18;;;1.40;;
32445;SDS011;18899;50.748;7.102;2022-11-04T15:42:23;4.38;;;1.80;;
32445;SDS011;18899;50.748;7.102;2022-11-04T15:47:46;6.53;;;1.90;;
32445;SDS011;18899;50.748;7.102;2022-11-04T15:50:14;4.70;;;1.50;;
32445;SDS011;18899;50.748;7.102;2022-11-04T15:52:50;7.57;;;1.65;;
32445;SDS011;18899;50.748;7.102;2022-11-04T15:55:19;6.88;;;1.92;;
32445;SDS011;18899;50.748;7.102;2022-11-04T15:57:50;7.40;;;2.30;;
32445;SDS011;18899;50.748;7.102;2022-11-04T16:00:21;5.25;;;1.80;;
32445;SDS011;18899;50.748;7.102;2022-11-04T16:02:53;8.85;;;1.73;;
32445;SDS011;18899;50.748;7.102;2022-11-04T16:05:24;4.43;;;1.50;;
32445;SDS011;18899;50.748;7.102;2022-11-04T16:08:12;3.70;;;1.55;;
32445;SDS011;18899;50.748;7.102;2022-11-04T16:11:06;3.58;;;1.50;;
32445;SDS011;18899;50.748;7.102;2022-11-04T16:13:44;5.07;;;2.45;;
32445;SDS011;18899;50.748;7.102;2022-11-04T16:16:15;3.50;;;1.60;;
32445;SDS011;18899;50.748;7.102;2022-11-04T16:18:53;5.13;;;1.77;;
32445;SDS011;18899;50.748;7.102;2022-11-04T16:24:06;8.63;;;2.10;;
32445;SDS011;18899;50.748;7.102;2022-11-04T16:26:41;6.18;;;2.08;;
32445;SDS011;18899;50.748;7.102;2022-11-04T16:29:12;3.47;;;1.95;;
32445;SDS011;18899;50.748;7.102;2022-11-04T16:34:41;4.55;;;1.70;;
32445;SDS011;18899;50.748;7.102;2022-11-04T16:37:08;2.90;;;2.08;;
32445;SDS011;18899;50.748;7.102;2022-11-04T16:39:34;4.10;;;2.20;;
32445;SDS011;18899;50.748;7.102;2022-11-04T16:41:59;8.77;;;2.60;;
32445;SDS011;18899;50.748;7.102;2022-11-04T16:44:25;6.97;;;2.80;;
32445;SDS011;18899;50.748;7.102;2022-11-04T16:46:51;4.18;;;2.67;;
32445;SDS011;18899;50.748;7.102;2022-11-04T16:49:18;5.30;;;2.92;;
32445;SDS011;18899;50.748;7.102;2022-11-04T16:51:47;8.02;;;3.38;;
32445;SDS011;18899;50.748;7.102;2022-11-04T16:54:20;8.25;;;2.97;;
32445;SDS011;18899;50.748;7.102;2022-11-04T16:56:47;9.75;;;3.40;;
32445;SDS011;18899;50.748;7.102;2022-11-04T16:59:13;5.95;;;3.10;;
32445;SDS011;18899;50.748;7.102;2022-11-04T17:01:38;6.53;;;3.47;;
32445;SDS011;18899;50.748;7.102;2022-11-04T17:04:07;8.98;;;3.60;;
32445;SDS011;18899;50.748;7.102;2022-11-04T17:06:33;6.30;;;3.38;;
32445;SDS011;18899;50.748;7.102;2022-11-04T17:08:59;9.65;;;3.47;;
32445;SDS011;18899;50.748;7.102;2022-11-04T17:11:25;7.03;;;3.50;;
32445;SDS011;18899;50.748;7.102;2022-11-04T17:13:51;6.97;;;4.35;;
32445;SDS011;18899;50.748;7.102;2022-11-04T17:16:16;13.65;;;4.03;;
32445;SDS011;18899;50.748;7.102;2022-11-04T17:18:42;8.73;;;4.18;;
32445;SDS011;18899;50.748;7.102;2022-11-04T17:21:10;9.80;;;4.30;;
32445;SDS011;18899;50.748;7.102;2022-11-04T17:23:40;12.00;;;4.32;;
32445;SDS011;18899;50.748;7.102;2022-11-04T17:26:07;8.55;;;4.30;;
32445;SDS011;18899;50.748;7.102;2022-11-04T17:28:33;9.55;;;4.50;;
32445;SDS011;18899;50.748;7.102;2022-11-04T17:31:00;11.90;;;4.18;;
32445;SDS011;18899;50.748;7.102;2022-11-04T17:33:26;7.68;;;3.80;;
32445;SDS011;18899;50.748;7.102;2022-11-04T17:35:52;10.30;;;4.80;;
32445;SDS011;18899;50.748;7.102;2022-11-04T17:38:18;8.82;;;4.65;;
32445;SDS011;18899;50.748;7.102;2022-11-04T17:40:44;11.90;;;4.32;;